KFME METAR and TAF | Updated Today

KFME METAR

Tipton Airport

Observation time: 19 min. ago

KFME 200500Z AUTO 00000KT 10SM CLR 20/20 A3015 RMK AO1

Need help? Read our tutorial on how to read METARs or read the parsed version below.

Tipton Airport (KFME) METAR

  • Weather conditions on Sat, 20 Aug 2022 05:00:00 +0000 (19 min. ago):
  • Present conditions: Dry
  • Clouds: Clear skies
  • Visibility: 16093 meters
  • Wind: Calm
  • Temperature: 20 celsius
  • Dew point: 20 celsius
  • Pressure: 30.15 inHg
  • Remarks: AO1


Useful to know...